Time;durP1;ratioP1;P1;durP2;ratioP2;P2;SDS_P1;SDS_P2;PMS_P1;PMS_P2;Temp;Humidity;BMP_temperature;BMP_pressure;BME280_temperature;BME280_humidity;BME280_pressure;Samples;Min_cycle;Max_cycle;Signal;HPM_P1;HPM_P2
2022/10/25 07:10:54;;;;;;;;;;;16.30;65.80;;;;;;6119587;23;20043;-77
2022/10/25 07:13:21;;;;;;;;;;;16.50;66.80;;;;;;6097430;23;19937;-78
2022/10/25 07:15:48;;;;;;;;;;;16.60;65.60;;;;;;6098673;23;19921;-77
2022/10/25 07:18:15;;;;;;;;;;;16.60;65.10;;;;;;6099131;23;19922;-77
2022/10/25 07:20:47;;;;;;;;;;;16.80;65.70;;;;;;6129074;23;19927;-77
2022/10/25 07:23:14;;;;;;;;;;;17.00;64.80;;;;;;6129503;23;19921;-78
2022/10/25 07:25:42;;;;;;;;;;;17.00;63.70;;;;;;6128959;23;19925;-78
2022/10/25 07:28:09;;;;;;;;;;;17.10;63.60;;;;;;6129440;23;20321;-77
2022/10/25 07:30:35;;;;;;;;;;;17.20;63.70;;;;;;6128617;23;19928;-77
2022/10/25 07:33:02;;;;;;;;;;;17.30;63.70;;;;;;6154785;23;19954;-77
2022/10/25 07:35:29;;;;;;;;;;;17.40;62.80;;;;;;6128582;23;19925;-78
2022/10/25 07:38:07;;;;;;;;;;;17.50;61.90;;;;;;6131798;23;19921;-77
2022/10/25 07:40:34;;;;;;;;;;;17.60;61.70;;;;;;6128425;23;20256;-77
2022/10/25 07:43:00;;;;;;;;;;;17.60;61.60;;;;;;6129229;23;19931;-77
2022/10/25 07:45:27;;;;;;;;;;;17.70;62.00;;;;;;6128752;23;19927;-77
2022/10/25 07:47:56;;;;;;;;;;;17.80;61.60;;;;;;6130645;23;19932;-77
2022/10/25 07:50:23;;;;;;;;;;;18.00;60.40;;;;;;6129935;23;19927;-77
2022/10/25 07:52:50;;;;;;;0.00;0.00;;;17.90;60.50;;;;;;6130063;23;20242;-77
2022/10/25 07:55:16;;;;;;;;;;;17.90;61.10;;;;;;6129850;23;20101;-77
2022/10/25 07:57:43;;;;;;;;;;;17.90;60.30;;;;;;6126369;23;19916;-77
2022/10/25 08:00:11;;;;;;;0.00;0.00;;;18.00;60.10;;;;;;6127109;23;19923;-78
2022/10/25 08:02:37;;;;;;;0.00;0.00;;;18.10;60.50;;;;;;6125220;23;20703;-77
2022/10/25 08:05:05;;;;;;;0.00;0.00;;;18.00;60.10;;;;;;6126417;23;20409;-77
2022/10/25 08:07:32;;;;;;;0.10;0.00;;;18.20;59.50;;;;;;6125112;23;20420;-78
2022/10/25 08:09:58;;;;;;;0.00;0.00;;;18.40;59.10;;;;;;6127797;23;20699;-79
2022/10/25 08:12:25;;;;;;;0.00;0.00;;;18.50;58.30;;;;;;6149846;23;20834;-78
2022/10/25 08:14:54;;;;;;;0.20;0.00;;;18.60;58.10;;;;;;6150781;23;20378;-78
2022/10/25 08:17:21;;;;;;;0.00;0.00;;;18.60;58.60;;;;;;6148390;23;20453;-78
2022/10/25 08:19:48;;;;;;;0.00;0.00;;;18.70;58.50;;;;;;6151556;23;20026;-78
2022/10/25 08:22:17;;;;;;;0.00;0.00;;;18.80;57.40;;;;;;6151403;23;20036;-77
2022/10/25 08:24:44;;;;;;;;;;;18.90;56.80;;;;;;6152635;23;20029;-77
2022/10/25 08:27:11;;;;;;;;;;;19.00;56.70;;;;;;6153295;23;19916;-78
2022/10/25 08:29:37;;;;;;;0.00;0.00;;;19.10;56.80;;;;;;6152240;23;19943;-77
2022/10/25 08:32:04;;;;;;;0.00;0.00;;;19.10;57.00;;;;;;6153881;23;20036;-78
2022/10/25 08:34:31;;;;;;;0.00;0.00;;;19.20;56.20;;;;;;6153218;23;20484;-78
2022/10/25 08:36:59;;;;;;;0.00;0.00;;;19.20;55.90;;;;;;6154273;23;20026;-78
2022/10/25 08:39:25;;;;;;;0.00;0.00;;;19.20;56.30;;;;;;6152987;23;20040;-77
2022/10/25 08:42:00;;;;;;;0.13;0.00;;;19.40;56.50;;;;;;6153739;23;20121;-77
2022/10/25 08:44:55;;;;;;;0.00;0.00;;;19.40;56.40;;;;;;6153247;23;20021;-77
2022/10/25 08:47:33;;;;;;;0.00;0.00;;;19.50;56.10;;;;;;6153069;23;20044;-78
2022/10/25 08:50:22;;;;;;;0.00;0.00;;;19.60;55.00;;;;;;6153937;23;20049;-78
2022/10/25 08:52:55;;;;;;;0.00;0.00;;;19.50;55.10;;;;;;6153002;23;20038;-78
2022/10/25 08:55:32;;;;;;;0.00;0.00;;;19.60;54.80;;;;;;6153564;23;20476;-78
2022/10/25 08:58:01;;;;;;;0.00;0.00;;;19.70;55.20;;;;;;6152452;23;20117;-78
2022/10/25 09:00:36;;;;;;;0.00;0.00;;;19.80;53.60;;;;;;6153030;23;20104;-77
2022/10/25 09:03:04;;;;;;;0.00;0.00;;;19.80;53.50;;;;;;6151920;23;20394;-79
2022/10/25 09:05:46;;;;;;;0.00;0.00;;;19.90;54.30;;;;;;6153408;23;20072;-79
2022/10/25 09:08:40;;;;;;;0.00;0.00;;;20.00;53.60;;;;;;6152053;23;20820;-78
2022/10/25 09:11:07;;;;;;;0.00;0.00;;;20.10;53.20;;;;;;6151874;23;20357;-78
2022/10/25 09:13:58;;;;;;;0.00;0.00;;;20.30;54.60;;;;;;6152718;23;20092;-78
2022/10/25 09:16:43;;;;;;;0.00;0.00;;;20.30;54.00;;;;;;6152506;23;20476;-79
2022/10/25 09:19:45;;;;;;;0.00;0.00;;;20.40;53.70;;;;;;6151882;23;20032;-78
2022/10/25 09:22:40;;;;;;;0.00;0.00;;;20.40;52.60;;;;;;6093049;23;20040;-79
2022/10/25 09:25:33;;;;;;;0.00;0.00;;;20.40;53.10;;;;;;6150454;23;20377;-78
2022/10/25 09:28:05;;;;;;;0.00;0.00;;;20.50;53.30;;;;;;6145960;23;20457;-78
2022/10/25 09:30:40;;;;;;;0.00;0.00;;;20.70;51.90;;;;;;6152135;23;20048;-78
2022/10/25 09:33:12;;;;;;;0.00;0.00;;;20.80;52.00;;;;;;6151259;23;20025;-79
2022/10/25 09:35:49;;;;;;;0.00;0.00;;;20.90;51.60;;;;;;6151444;23;20036;-78
2022/10/25 09:38:42;;;;;;;0.00;0.00;;;21.00;51.10;;;;;;6149250;23;20414;-78
2022/10/25 09:41:32;;;;;;;0.43;0.00;;;21.10;51.30;;;;;;6149673;23;20089;-78
2022/10/25 09:44:11;;;;;;;0.00;0.00;;;21.20;50.60;;;;;;6149334;23;20473;-81
2022/10/25 09:46:47;;;;;;;0.05;0.00;;;21.20;52.70;;;;;;6150317;23;20060;-78
2022/10/25 09:49:32;;;;;;;0.20;0.00;;;21.20;52.80;;;;;;6149771;23;20032;-78
2022/10/25 09:52:20;;;;;;;0.22;0.00;;;21.30;51.00;;;;;;6149316;23;20049;-78
2022/10/25 09:55:11;;;;;;;0.15;0.00;;;21.30;50.80;;;;;;6148968;23;20044;-78
2022/10/25 09:57:38;;;;;;;0.00;0.00;;;21.30;50.50;;;;;;6148957;23;20501;-78
2022/10/25 10:00:05;;;;;;;0.00;0.00;;;21.30;51.80;;;;;;6150619;23;20029;-79
2022/10/25 10:02:32;;;;;;;0.00;0.00;;;21.40;52.30;;;;;;6150246;23;20101;-78
2022/10/25 10:04:59;;;;;;;0.00;0.00;;;21.40;51.10;;;;;;6149521;23;20045;-79
2022/10/25 10:07:34;;;;;;;0.10;0.00;;;21.40;51.50;;;;;;6152688;23;20467;-78
2022/10/25 10:10:04;;;;;;;0.00;0.00;;;21.40;49.80;;;;;;6150084;23;20045;-77
2022/10/25 10:12:48;;;;;;;0.00;0.00;;;21.40;50.70;;;;;;6126116;23;20109;-78
2022/10/25 10:15:18;;;;;;;;;;;21.40;51.80;;;;;;6151246;23;20048;-78
2022/10/25 10:17:45;;;;;;;0.10;0.00;;;21.20;52.70;;;;;;6150758;23;19987;-79
2022/10/25 10:20:17;;;;;;;0.00;0.00;;;21.20;53.10;;;;;;6152112;23;20353;-79
2022/10/25 10:22:50;;;;;;;0.00;0.00;;;21.30;52.00;;;;;;6151036;23;20045;-78
2022/10/25 10:25:21;;;;;;;0.00;0.00;;;21.40;53.70;;;;;;6150857;23;20021;-78
2022/10/25 10:27:52;;;;;;;0.00;0.00;;;21.40;52.80;;;;;;6149371;23;20033;-79
2022/10/25 10:30:30;;;;;;;0.00;0.00;;;21.50;53.30;;;;;;6150475;23;20049;-79
2022/10/25 10:33:00;;;;;;;0.00;0.00;;;21.50;52.10;;;;;;6151126;23;20096;-79
2022/10/25 10:35:32;;;;;;;0.00;0.00;;;21.60;53.10;;;;;;6150849;23;20413;-79
2022/10/25 10:38:22;;;;;;;0.00;0.00;;;21.70;51.50;;;;;;6148230;23;20022;-81
2022/10/25 10:40:52;;;;;;;0.00;0.00;;;21.90;51.50;;;;;;6150864;23;20398;-79
2022/10/25 10:43:23;;;;;;;0.00;0.00;;;22.00;50.20;;;;;;6150322;23;20740;-79
2022/10/25 10:45:51;;;;;;;0.00;0.00;;;22.10;52.70;;;;;;6150085;23;20378;-79
2022/10/25 10:48:21;;;;;;;0.00;0.00;;;22.20;52.30;;;;;;6150286;23;20501;-79
2022/10/25 10:50:50;;;;;;;0.00;0.00;;;22.40;49.90;;;;;;6151146;23;20774;-79
2022/10/25 10:53:21;;;;;;;0.00;0.00;;;22.50;51.30;;;;;;6150689;23;20429;-79
2022/10/25 10:56:00;;;;;;;0.00;0.00;;;22.60;51.70;;;;;;6151218;23;20420;-79
2022/10/25 10:58:33;;;;;;;0.00;0.00;;;22.70;51.70;;;;;;6150557;23;20426;-79
2022/10/25 11:01:01;;;;;;;0.10;0.00;;;22.80;52.70;;;;;;6150946;23;20909;-78
2022/10/25 11:03:40;;;;;;;0.00;0.00;;;23.00;51.60;;;;;;6150472;23;20487;-79
2022/10/25 11:06:32;;;;;;;0.00;0.00;;;23.10;53.80;;;;;;6150917;23;20715;-79
2022/10/25 11:09:15;;;;;;;0.00;0.00;;;23.20;53.00;;;;;;6150698;23;20775;-79
2022/10/25 11:11:43;;;;;;;0.10;0.00;;;23.40;51.50;;;;;;6150765;23;20824;-79
2022/10/25 11:14:15;;;;;;;0.00;0.00;;;23.40;52.10;;;;;;6126631;23;20465;-78
2022/10/25 11:16:42;;;;;;;0.10;0.00;;;23.40;51.00;;;;;;6125702;23;20496;-79
2022/10/25 11:19:44;;;;;;;0.10;0.10;;;23.40;51.50;;;;;;6127243;23;20680;-79
2022/10/25 11:22:20;;;;;;;0.00;0.00;;;23.00;53.50;;;;;;6126050;23;20446;-79
2022/10/25 11:25:12;;;;;;;0.00;0.00;;;23.10;51.90;;;;;;6125133;23;20445;-79
2022/10/25 11:28:00;;;;;;;0.03;0.03;;;23.40;52.70;;;;;;6126648;23;20771;-79
2022/10/25 11:31:08;;;;;;;0.60;0.00;;;23.40;53.60;;;;;;6126235;23;20684;-79
2022/10/25 11:33:44;;;;;;;0.20;0.07;;;23.50;52.50;;;;;;6126707;23;20393;-79
2022/10/25 11:36:20;;;;;;;0.10;0.10;;;23.30;53.80;;;;;;6125698;23;20374;-80
2022/10/25 11:39:07;;;;;;;0.10;0.10;;;23.20;54.20;;;;;;6127124;23;20429;-79
2022/10/25 11:41:44;;;;;;;0.15;0.10;;;23.30;54.90;;;;;;6125496;23;20424;-79
2022/10/25 11:44:34;;;;;;;0.10;0.03;;;23.20;53.40;;;;;;6151199;23;20376;-79
2022/10/25 11:47:10;;;;;;;0.30;0.10;;;23.20;54.20;;;;;;6125799;23;20421;-79
2022/10/25 11:49:40;;;;;;;0.10;0.10;;;23.40;53.70;;;;;;6148794;23;20429;-79
2022/10/25 11:52:43;;;;;;;0.10;0.00;;;23.30;53.30;;;;;;6149517;23;20750;-79
2022/10/25 11:55:25;;;;;;;0.00;0.00;;;23.40;54.10;;;;;;6148858;23;20743;-79
2022/10/25 11:58:22;;;;;;;0.10;0.10;;;23.50;55.10;;;;;;6148976;23;20405;-79
2022/10/25 12:01:09;;;;;;;0.10;0.10;;;23.60;54.60;;;;;;6149831;23;20723;-79
2022/10/25 12:04:20;;;;;;;0.10;0.10;;;23.10;55.20;;;;;;6150294;23;20402;-79
2022/10/25 12:07:30;;;;;;;0.10;0.07;;;22.70;57.80;;;;;;6151137;23;20409;-80
2022/10/25 12:10:12;;;;;;;0.20;0.00;;;22.70;57.70;;;;;;6105493;23;20456;-79
2022/10/25 12:12:45;;;;;;;0.10;0.10;;;22.90;57.90;;;;;;6151526;23;20438;-79
2022/10/25 12:15:20;;;;;;;0.30;0.10;;;23.10;58.00;;;;;;6151868;23;20406;-79
2022/10/25 12:17:48;;;;;;;0.15;0.10;;;23.10;58.10;;;;;;6151259;23;20389;-80
2022/10/25 12:20:24;;;;;;;0.70;0.20;;;23.30;57.30;;;;;;6151508;23;20446;-79
2022/10/25 12:22:54;;;;;;;0.30;0.10;;;23.40;58.20;;;;;;6151539;23;20381;-79
2022/10/25 12:25:32;;;;;;;0.10;0.10;;;23.40;58.10;;;;;;6152055;23;20385;-78
2022/10/25 12:28:10;;;;;;;0.10;0.10;;;23.40;58.40;;;;;;6152857;23;20449;-79
2022/10/25 12:30:40;;;;;;;0.25;0.10;;;23.40;57.20;;;;;;6127163;23;20378;-79
2022/10/25 12:33:30;;;;;;;0.10;0.03;;;23.40;58.50;;;;;;6153217;23;20461;-79
2022/10/25 12:36:02;;;;;;;0.10;0.10;;;23.00;56.80;;;;;;6107623;23;20453;-79
2022/10/25 12:38:35;;;;;;;0.15;0.10;;;23.20;57.30;;;;;;6127606;23;20470;-79
2022/10/25 12:41:05;;;;;;;0.10;0.10;;;22.80;57.40;;;;;;6126899;23;20838;-80
2022/10/25 12:43:44;;;;;;;0.20;0.10;;;22.90;58.50;;;;;;6127625;23;20392;-79
2022/10/25 12:46:51;;;;;;;0.10;0.10;;;23.20;57.40;;;;;;6127073;23;20380;-79
2022/10/25 12:49:36;;;;;;;0.10;0.10;;;23.30;55.50;;;;;;6152737;23;20413;-79
2022/10/25 12:52:26;;;;;;;0.10;0.10;;;23.10;56.60;;;;;;6125634;23;20378;-80
2022/10/25 12:55:21;;;;;;;0.10;0.10;;;22.70;57.40;;;;;;6126340;23;20388;-79
2022/10/25 12:58:06;;;;;;;0.10;0.10;;;22.60;59.10;;;;;;6127065;23;20393;-79
2022/10/25 13:00:45;;;;;;;0.15;0.08;;;22.90;58.50;;;;;;6127739;23;20441;-79
2022/10/25 13:03:47;;;;;;;0.20;0.10;;;23.20;57.50;;;;;;6127570;23;20412;-81
2022/10/25 13:06:28;;;;;;;0.10;0.10;;;23.10;57.90;;;;;;6125200;23;20374;-79
2022/10/25 13:09:10;;;;;;;0.10;0.08;;;23.40;56.60;;;;;;6125049;23;20392;-78
2022/10/25 13:11:47;;;;;;;0.20;0.10;;;23.40;56.10;;;;;;6148654;23;20432;-80
2022/10/25 13:14:24;;;;;;;0.10;0.10;;;23.60;56.60;;;;;;6150546;23;20386;-79
2022/10/25 13:16:51;;;;;;;0.10;0.10;;;23.70;55.30;;;;;;6150850;23;20382;-79
2022/10/25 13:19:29;;;;;;;0.10;0.10;;;23.20;55.20;;;;;;6151055;23;20380;-79
2022/10/25 13:22:39;;;;;;;0.10;0.10;;;23.10;56.40;;;;;;6151197;23;20370;-79
2022/10/25 13:25:11;;;;;;;2.30;0.10;;;23.00;56.90;;;;;;6149976;23;20421;-80
2022/10/25 13:27:59;;;;;;;0.30;0.10;;;23.30;56.70;;;;;;6151335;23;20453;-79
2022/10/25 13:30:28;;;;;;;0.10;0.10;;;23.60;55.60;;;;;;6150596;23;20433;-79
2022/10/25 13:33:17;;;;;;;0.10;0.03;;;24.00;54.50;;;;;;6151732;23;20695;-79
2022/10/25 13:35:47;;;;;;;0.10;0.05;;;23.90;54.20;;;;;;6150297;23;20401;-79
2022/10/25 13:38:30;;;;;;;0.10;0.10;;;23.70;55.20;;;;;;6151289;23;20718;-79
2022/10/25 13:41:17;;;;;;;0.20;0.20;;;24.10;53.80;;;;;;6152395;23;20409;-79
2022/10/25 13:43:57;;;;;;;0.15;0.10;;;24.40;53.50;;;;;;6152513;23;20545;-79
2022/10/25 13:46:39;;;;;;;0.10;0.05;;;24.00;54.20;;;;;;6151438;23;20392;-78
2022/10/25 13:49:25;;;;;;;0.10;0.10;;;24.00;54.40;;;;;;6150328;23;20945;-79
2022/10/25 13:52:22;;;;;;;0.15;0.10;;;23.90;53.70;;;;;;6149946;23;20457;-78
2022/10/25 13:54:53;;;;;;;0.10;0.10;;;23.50;54.90;;;;;;6151202;23;20446;-79
2022/10/25 13:57:52;;;;;;;;;;;23.00;56.50;;;;;;6152300;23;20096;-78
2022/10/25 14:00:25;;;;;;;;;;;22.70;57.50;;;;;;6088229;23;19917;-79
2022/10/25 14:03:01;;;;;;;;;;;22.50;58.20;;;;;;6152587;23;19920;-78
2022/10/25 14:05:47;;;;;;;;;;;22.50;60.40;;;;;;6152619;23;19917;-79
2022/10/25 14:08:32;;;;;;;;;;;22.20;62.10;;;;;;6152352;23;19991;-78
2022/10/25 14:11:07;;;;;;;;;;;22.00;62.80;;;;;;6154397;23;19991;-79
2022/10/25 14:13:49;;;;;;;;;;;22.00;63.70;;;;;;6128253;23;19938;-79
2022/10/25 14:16:30;;;;;;;;;;;22.10;64.50;;;;;;6128374;23;19923;-79
2022/10/25 14:18:59;;;;;;;;;;;22.00;65.10;;;;;;6128211;23;19920;-79
2022/10/25 14:21:26;;;;;;;;;;;22.20;64.40;;;;;;6126650;23;19927;-79
2022/10/25 14:23:53;;;;;;;;;;;22.20;64.10;;;;;;6128190;23;19940;-78
2022/10/25 14:26:21;;;;;;;;;;;22.20;65.30;;;;;;6125182;23;19943;-79
2022/10/25 14:28:48;;;;;;;;;;;22.20;65.80;;;;;;6127043;23;19916;-79
2022/10/25 14:31:17;;;;;;;;;;;22.00;66.60;;;;;;6126372;23;19991;-79
2022/10/25 14:33:49;;;;;;;;;;;21.90;66.80;;;;;;6127711;23;20337;-79
2022/10/25 14:36:28;;;;;;;;;;;21.90;68.80;;;;;;6126682;23;19916;-78
2022/10/25 14:39:03;;;;;;;;;;;21.70;69.50;;;;;;6097928;23;19940;-79
2022/10/25 14:41:31;;;;;;;;;;;21.70;69.90;;;;;;6126141;23;19991;-79
2022/10/25 14:43:58;;;;;;;;;;;21.90;69.20;;;;;;6127485;23;20351;-78
2022/10/25 14:46:25;;;;;;;;;;;21.90;70.10;;;;;;6126544;23;19921;-78
2022/10/25 14:48:53;;;;;;;;;;;22.00;70.30;;;;;;6127906;23;19923;-79
2022/10/25 14:51:23;;;;;;;;;;;21.80;69.80;;;;;;6126568;23;19916;-78
2022/10/25 14:53:55;;;;;;;;;;;21.60;71.50;;;;;;6126837;23;19917;-78
2022/10/25 14:56:27;;;;;;;;;;;21.40;72.30;;;;;;6126567;23;19955;-79
2022/10/25 14:58:54;;;;;;;;;;;21.30;72.10;;;;;;6127813;23;19950;-78
2022/10/25 15:01:21;;;;;;;;;;;21.30;74.40;;;;;;6122501;23;19991;-79
2022/10/25 15:03:50;;;;;;;;;;;21.30;74.80;;;;;;6126223;23;20297;-79
2022/10/25 15:06:18;;;;;;;;;;;21.30;75.00;;;;;;6126059;23;19920;-79
2022/10/25 15:08:45;;;;;;;;;;;21.20;76.10;;;;;;6127385;23;19955;-79
2022/10/25 15:11:18;;;;;;;;;;;21.10;76.30;;;;;;6144347;23;19916;-78
2022/10/25 15:13:48;;;;;;;;;;;21.00;77.60;;;;;;6151522;23;20261;-79
2022/10/25 15:16:35;;;;;;;;;;;21.00;78.10;;;;;;6151248;23;19920;-78
2022/10/25 15:19:13;;;;;;;;;;;21.10;78.20;;;;;;6152442;23;20004;-78
2022/10/25 15:21:45;;;;;;;;;;;21.00;77.40;;;;;;6151909;23;20467;-79
2022/10/25 15:24:22;;;;;;;;;;;21.10;78.40;;;;;;6152905;23;19920;-79
2022/10/25 15:27:09;;;;;;;;;;;21.10;78.30;;;;;;6151808;23;19923;-79
2022/10/25 15:29:41;;;;;;;;;;;21.00;78.10;;;;;;6131727;23;20244;-78
2022/10/25 15:32:12;;;;;;;;;;;20.90;78.20;;;;;;6152614;23;20296;-79
2022/10/25 15:34:40;;;;;;;;;;;20.70;79.50;;;;;;6147990;23;19951;-78
2022/10/25 15:37:09;;;;;;;;;;;20.70;80.80;;;;;;6152036;23;19955;-79
2022/10/25 15:39:36;;;;;;;;;;;20.50;82.50;;;;;;6152128;23;19921;-78
2022/10/25 15:42:02;;;;;;;;;;;20.50;83.70;;;;;;6153642;23;20392;-79
2022/10/25 15:44:29;;;;;;;;;;;20.40;85.00;;;;;;6151488;23;19916;-79
2022/10/25 15:46:56;;;;;;;;;;;20.30;85.60;;;;;;6152634;23;19944;-79
2022/10/25 15:49:23;;;;;;;;;;;20.30;87.10;;;;;;6152622;23;19998;-79
2022/10/25 15:51:49;;;;;;;;;;;20.30;87.50;;;;;;6151957;23;19920;-79
2022/10/25 15:54:18;;;;;;;;;;;20.20;88.50;;;;;;6153297;23;20341;-79
2022/10/25 15:56:45;;;;;;;;;;;20.20;89.70;;;;;;6152336;23;20290;-79
2022/10/25 15:59:12;;;;;;;;;;;20.10;90.30;;;;;;6153225;23;19920;-78
2022/10/25 16:01:40;;;;;;;;;;;20.00;90.70;;;;;;6152851;23;19917;-78
2022/10/25 16:04:14;;;;;;;;;;;19.90;91.20;;;;;;6153914;23;20356;-79
2022/10/25 16:06:41;;;;;;;;;;;19.90;92.20;;;;;;6153324;23;19916;-78
2022/10/25 16:09:08;;;;;;;;;;;19.80;91.90;;;;;;6154202;23;19991;-77
2022/10/25 16:11:36;;;;;;;;;;;19.80;91.70;;;;;;6153164;23;19920;-77
2022/10/25 16:14:03;;;;;;;;;;;19.80;91.40;;;;;;6154631;23;19916;-78
2022/10/25 16:16:30;;;;;;;;;;;19.90;91.60;;;;;;6153400;23;19920;-78
2022/10/25 16:19:12;;;;;;;;;;;19.80;91.40;;;;;;6152594;23;20294;-79
2022/10/25 16:21:38;;;;;;;;;;;19.80;91.60;;;;;;6152749;23;20366;-79
2022/10/25 16:24:05;;;;;;;;;;;19.90;91.30;;;;;;6149530;23;20280;-79
2022/10/25 16:26:42;;;;;;;;;;;19.90;91.10;;;;;;6152406;23;19996;-78
2022/10/25 16:29:13;;;;;;;;;;;19.90;90.80;;;;;;6154299;23;19916;-79
2022/10/25 16:31:39;;;;;;;;;;;19.90;91.00;;;;;;6151303;23;19940;-78
2022/10/25 16:34:06;;;;;;;;;;;19.90;90.90;;;;;;6151948;23;19928;-79
2022/10/25 16:36:33;;;;;;;;;;;19.90;91.20;;;;;;6151231;23;19987;-79
2022/10/25 16:38:59;;;;;;;;;;;19.90;91.20;;;;;;6152003;23;19922;-79
2022/10/25 16:41:30;;;;;;;;;;;19.90;92.40;;;;;;6152830;23;19987;-79
2022/10/25 16:43:57;;;;;;;;;;;19.80;92.10;;;;;;6152230;23;19971;-79
2022/10/25 16:46:24;;;;;;;;;;;19.70;92.60;;;;;;6153096;23;19963;-77
2022/10/25 16:48:51;;;;;;;;;;;19.70;93.20;;;;;;6153042;23;19916;-78
2022/10/25 16:51:21;;;;;;;;;;;19.60;93.50;;;;;;6151955;23;19936;-79
2022/10/25 16:53:48;;;;;;;;;;;19.60;93.30;;;;;;6152117;23;19995;-79
2022/10/25 16:56:17;;;;;;;;;;;19.50;93.00;;;;;;6151757;23;19951;-79
2022/10/25 16:58:44;;;;;;;;;;;19.50;92.90;;;;;;6152483;23;19917;-79
2022/10/25 17:01:15;;;;;;;;;;;19.40;93.30;;;;;;6153994;23;19965;-78
2022/10/25 17:03:43;;;;;;;;;;;19.40;94.10;;;;;;6152736;23;20297;-78
2022/10/25 17:06:10;;;;;;;;;;;19.30;93.70;;;;;;6153943;23;20353;-78
2022/10/25 17:08:56;;;;;;;;;;;19.20;95.70;;;;;;6153406;23;19921;-79
2022/10/25 17:11:23;;;;;;;;;;;19.10;95.10;;;;;;6154624;23;19924;-79
2022/10/25 17:13:50;;;;;;;;;;;19.00;95.10;;;;;;6128282;23;19927;-78
2022/10/25 17:16:16;;;;;;;;;;;18.90;95.40;;;;;;6128896;23;19920;-78
2022/10/25 17:18:43;;;;;;;;;;;18.70;96.90;;;;;;6128474;23;19986;-78
2022/10/25 17:21:11;;;;;;;;;;;18.60;96.80;;;;;;6128963;23;20248;-78
2022/10/25 17:23:38;;;;;;;;;;;18.60;96.90;;;;;;6128065;23;19952;-78
2022/10/25 17:26:05;;;;;;;;;;;18.50;97.70;;;;;;6128523;23;19916;-78
2022/10/25 17:28:32;;;;;;;;;;;18.40;98.20;;;;;;6128916;23;19927;-77
2022/10/25 17:30:59;;;;;;;;;;;18.30;98.70;;;;;;6127939;23;20306;-78
2022/10/25 17:33:27;;;;;;;;;;;18.30;98.50;;;;;;6154732;23;19952;-78
2022/10/25 17:35:56;;;;;;;;;;;18.30;98.80;;;;;;6127928;23;20286;-78
2022/10/25 17:38:22;;;;;;;;;;;18.30;98.90;;;;;;6129208;23;20252;-78
2022/10/25 17:40:49;;;;;;;;;;;18.30;99.20;;;;;;6127346;23;20325;-78
2022/10/25 17:43:16;;;;;;;;;;;18.30;98.70;;;;;;6127866;23;19943;-78
2022/10/25 17:45:43;;;;;;;;;;;18.20;99.90;;;;;;6152602;23;19917;-78
2022/10/25 17:48:11;;;;;;;;;;;18.20;99.90;;;;;;6127246;23;19927;-78
2022/10/25 17:50:39;;;;;;;;;;;18.30;99.50;;;;;;6125994;23;19928;-78
2022/10/25 17:53:07;;;;;;;;;;;18.30;99.60;;;;;;6127805;23;19951;-77
2022/10/25 17:55:35;;;;;;;;;;;18.30;99.70;;;;;;6153188;23;19938;-78
2022/10/25 17:58:06;;;;;;;;;;;18.20;99.50;;;;;;6151566;23;19920;-78
2022/10/25 18:00:34;;;;;;;;;;;18.30;99.40;;;;;;6151889;23;20352;-78
2022/10/25 18:03:02;;;;;;;;;;;18.20;99.10;;;;;;6150675;23;19955;-78
2022/10/25 18:05:30;;;;;;;;;;;18.20;99.20;;;;;;6151526;23;20256;-78
2022/10/25 18:07:56;;;;;;;;;;;18.10;99.90;;;;;;6151480;23;19924;-78
2022/10/25 18:10:23;;;;;;;;;;;17.90;99.90;;;;;;6154495;23;20260;-78
2022/10/25 18:12:52;;;;;;;;;;;17.70;99.90;;;;;;6151766;23;20297;-78
2022/10/25 18:15:19;;;;;;;;;;;17.60;99.90;;;;;;6153360;23;19920;-78
2022/10/25 18:17:45;;;;;;;;;;;17.60;99.90;;;;;;6151803;23;19999;-78
2022/10/25 18:20:13;;;;;;;;;;;17.60;99.90;;;;;;6152114;23;19920;-77
2022/10/25 18:22:40;;;;;;;;;;;17.60;99.90;;;;;;6152696;23;19991;-78
2022/10/25 18:25:07;;;;;;;;;;;17.60;99.90;;;;;;6151961;23;19924;-78
2022/10/25 18:27:33;;;;;;;;;;;17.60;99.90;;;;;;6152731;23;19991;-77
2022/10/25 18:30:01;;;;;;;;;;;17.60;99.90;;;;;;6151545;23;19955;-78
2022/10/25 18:32:28;;;;;;;;;;;17.60;99.90;;;;;;6151119;23;20020;-78
2022/10/25 18:35:02;;;;;;;;;;;17.60;99.90;;;;;;6150863;23;20329;-77
2022/10/25 18:37:28;;;;;;;;;;;17.60;99.90;;;;;;6150649;23;19944;-78
2022/10/25 18:39:55;;;;;;;;;;;17.50;99.90;;;;;;6150862;23;19996;-77
2022/10/25 18:42:22;;;;;;;;;;;17.50;99.90;;;;;;6151400;23;19927;-78
2022/10/25 18:44:51;;;;;;;;;;;17.50;99.90;;;;;;6150643;23;19927;-78
2022/10/25 18:47:18;;;;;;;;;;;17.50;99.90;;;;;;6152198;23;19984;-77
2022/10/25 18:49:45;;;;;;;;;;;17.50;99.90;;;;;;6153478;23;20330;-77
2022/10/25 18:52:12;;;;;;;;;;;17.60;99.90;;;;;;6154032;23;19996;-78
2022/10/25 18:54:40;;;;;;;;;;;17.60;99.90;;;;;;6152120;23;19928;-78
2022/10/25 18:57:07;;;;;;;;;;;17.50;99.90;;;;;;6151240;23;19925;-79
2022/10/25 18:59:33;;;;;;;;;;;17.50;99.90;;;;;;6152911;23;19921;-78
2022/10/25 19:02:00;;;;;;;;;;;17.50;99.90;;;;;;6151162;23;19988;-78
2022/10/25 19:04:27;;;;;;;;;;;17.50;99.90;;;;;;6152590;23;19925;-79
2022/10/25 19:06:54;;;;;;;;;;;17.50;99.90;;;;;;6152275;23;19927;-79
2022/10/25 19:09:21;;;;;;;;;;;17.40;99.90;;;;;;6153006;23;20003;-78
2022/10/25 19:11:47;;;;;;;;;;;17.40;99.90;;;;;;6152149;23;20332;-79
2022/10/25 19:14:14;;;;;;;;;;;17.40;99.90;;;;;;6156106;23;19928;-78
2022/10/25 19:16:41;;;;;;;;;;;17.30;99.90;;;;;;6157751;23;20316;-79
2022/10/25 19:19:10;;;;;;;;;;;17.30;99.90;;;;;;6156713;23;19955;-79
2022/10/25 19:21:37;;;;;;;;;;;17.30;99.90;;;;;;6157588;23;19924;-79
2022/10/25 19:24:04;;;;;;;;;;;17.10;99.90;;;;;;6156195;23;19927;-79
2022/10/25 19:26:31;;;;;;;;;;;17.10;99.90;;;;;;6156098;23;19988;-79
2022/10/25 19:28:59;;;;;;;;;;;17.10;99.90;;;;;;6155557;23;20000;-79
2022/10/25 19:31:26;;;;;;;;;;;17.00;99.90;;;;;;6154422;23;19931;-79
2022/10/25 19:33:57;;;;;;;;;;;17.00;99.90;;;;;;6154495;23;20249;-79
2022/10/25 19:36:24;;;;;;;;;;;17.00;99.90;;;;;;6155174;23;19924;-78
2022/10/25 19:38:50;;;;;;;;;;;17.00;99.90;;;;;;6154042;23;19996;-80
2022/10/25 19:41:18;;;;;;;;;;;16.90;99.90;;;;;;6155563;23;19951;-78
2022/10/25 19:43:46;;;;;;;;;;;16.90;99.90;;;;;;6154432;23;20071;-78
2022/10/25 19:46:13;;;;;;;;;;;16.80;99.90;;;;;;6156135;23;19920;-78
2022/10/25 19:48:39;;;;;;;;;;;16.80;99.90;;;;;;6153990;23;19927;-79
2022/10/25 19:51:08;;;;;;;;;;;16.80;99.90;;;;;;6155597;23;19925;-78
2022/10/25 19:53:35;;;;;;;;;;;16.70;99.90;;;;;;6154200;23;20341;-78
2022/10/25 19:56:11;;;;;;;;;;;16.70;99.90;;;;;;6153255;23;19952;-78
2022/10/25 19:58:38;;;;;;;;;;;16.60;99.90;;;;;;6153751;23;19948;-80
2022/10/25 20:01:18;;;;;;;;;;;16.50;99.90;;;;;;6152854;23;19999;-79
2022/10/25 20:03:46;;;;;;;;;;;16.40;99.90;;;;;;6149807;23;19991;-79
2022/10/25 20:06:14;;;;;;;;;;;16.40;99.90;;;;;;6152650;23;19925;-79
2022/10/25 20:08:47;;;;;;;;;;;16.50;99.90;;;;;;6153702;23;19963;-79
2022/10/25 20:11:14;;;;;;;;;;;16.50;99.90;;;;;;6153117;23;20252;-78
2022/10/25 20:13:41;;;;;;;;;;;16.40;99.90;;;;;;6154831;23;19920;-78
2022/10/25 20:16:08;;;;;;;;;;;16.40;99.90;;;;;;6152786;23;19983;-79
2022/10/25 20:18:37;;;;;;;;;;;16.30;99.90;;;;;;6154954;23;19995;-79
2022/10/25 20:21:06;;;;;;;;;;;16.20;99.90;;;;;;6152827;23;19987;-78
2022/10/25 20:23:33;;;;;;;;;;;16.00;99.90;;;;;;6154887;23;20300;-79
2022/10/25 20:26:29;;;;;;;;;;;15.90;99.90;;;;;;6151842;23;20011;-78
2022/10/25 20:28:57;;;;;;;;;;;15.70;99.90;;;;;;6151343;23;19920;-79
2022/10/25 20:31:24;;;;;;;;;;;15.80;99.90;;;;;;6152996;23;20231;-78
2022/10/25 20:33:51;;;;;;;;;;;15.80;99.90;;;;;;6155492;23;19948;-78
2022/10/25 20:36:17;;;;;;;;;;;15.80;99.90;;;;;;6152654;23;20354;-78
2022/10/25 20:38:44;;;;;;;;;;;15.80;99.90;;;;;;6153295;23;19924;-79
2022/10/25 20:41:12;;;;;;;;;;;15.90;99.90;;;;;;6153401;23;20317;-78
2022/10/25 20:43:39;;;;;;;;;;;15.90;99.90;;;;;;6154016;23;19948;-78
2022/10/25 20:46:06;;;;;;;;;;;15.90;99.90;;;;;;6153029;23;20312;-79
2022/10/25 20:48:34;;;;;;;;;;;15.90;99.90;;;;;;6155274;23;20364;-79
2022/10/25 20:51:01;;;;;;;;;;;16.00;99.90;;;;;;6151404;23;19920;-79
2022/10/25 20:53:33;;;;;;;;;;;16.00;99.90;;;;;;6153539;23;20261;-78
2022/10/25 20:56:00;;;;;;;;;;;16.00;99.90;;;;;;6154282;23;20349;-78
2022/10/25 20:58:27;;;;;;;;;;;16.00;99.90;;;;;;6154082;23;19956;-79
2022/10/25 21:00:56;;;;;;;;;;;16.00;99.90;;;;;;6154353;23;19928;-79
2022/10/25 21:03:23;;;;;;;;;;;16.10;99.90;;;;;;6153634;23;20329;-79
2022/10/25 21:05:54;;;;;;;;;;;16.10;99.90;;;;;;6154818;23;20339;-79
2022/10/25 21:08:21;;;;;;;;;;;16.10;99.90;;;;;;6152285;23;19924;-79
2022/10/25 21:10:52;;;;;;;;;;;16.10;99.90;;;;;;6154728;23;19948;-78
2022/10/25 21:13:20;;;;;;;;;;;16.10;99.90;;;;;;6150550;23;19932;-79
2022/10/25 21:15:47;;;;;;;;;;;16.20;99.90;;;;;;6152314;23;19936;-79
2022/10/25 21:18:15;;;;;;;;;;;16.20;99.90;;;;;;6150289;23;20269;-80
2022/10/25 21:20:47;;;;;;;;;;;16.10;99.90;;;;;;6152606;23;20341;-79